Time;durP1;ratioP1;P1;durP2;ratioP2;P2;SDS_P1;SDS_P2;PMS_P1;PMS_P2;Temp;Humidity;BMP_temperature;BMP_pressure;BME280_temperature;BME280_humidity;BME280_pressure;Samples;Min_cycle;Max_cycle;Signal;HPM_P1;HPM_P2
2021/07/05 00:04:15;;;;;;;7.10;6.40;;;28.90;51.60;;;;;;4739350;55;21042;-19
2021/07/05 00:09:16;;;;;;;7.05;6.35;;;28.90;51.70;;;;;;4785084;55;21523;-20
2021/07/05 00:14:17;;;;;;;6.35;5.82;;;28.80;51.70;;;;;;4748086;55;21018;-18
2021/07/05 00:19:17;;;;;;;7.20;6.43;;;28.80;51.60;;;;;;4765702;55;21002;-18
2021/07/05 00:24:19;;;;;;;6.78;6.07;;;28.80;51.60;;;;;;4758057;55;21010;-17
2021/07/05 00:29:19;;;;;;;6.50;5.90;;;28.90;51.70;;;;;;4788186;55;20997;-19
2021/07/05 00:34:21;;;;;;;6.68;6.07;;;28.80;51.70;;;;;;4761166;55;21088;-17
2021/07/05 00:39:22;;;;;;;7.20;6.50;;;28.90;51.80;;;;;;4742574;55;21038;-19
2021/07/05 00:44:22;;;;;;;6.85;6.20;;;28.80;51.60;;;;;;4761197;55;21013;-19
2021/07/05 00:49:23;;;;;;;6.90;6.20;;;28.80;51.20;;;;;;4762618;55;20974;-18
2021/07/05 00:54:25;;;;;;;6.82;6.20;;;28.80;51.80;;;;;;4758238;55;21014;-20
2021/07/05 00:59:27;;;;;;;6.68;6.07;;;28.80;51.70;;;;;;4782190;55;20986;-19
2021/07/05 01:04:28;;;;;;;7.12;6.43;;;28.90;51.80;;;;;;4760028;55;21066;-14
2021/07/05 01:09:29;;;;;;;6.60;6.00;;;28.80;51.80;;;;;;4758775;55;21541;-17
2021/07/05 01:14:30;;;;;;;6.65;5.90;;;28.80;51.90;;;;;;4819269;55;21018;-15
2021/07/05 01:19:30;;;;;;;6.90;6.20;;;28.90;51.90;;;;;;4762082;55;21037;-17
2021/07/05 01:24:31;;;;;;;6.82;6.12;;;28.80;51.90;;;;;;4738381;59;20988;-16
2021/07/05 01:29:36;;;;;;;6.22;5.68;;;28.80;52.00;;;;;;4818003;55;21086;-17
2021/07/05 01:34:37;;;;;;;6.40;5.80;;;28.90;51.90;;;;;;4792858;55;21037;-19
2021/07/05 01:39:39;;;;;;;6.35;5.80;;;28.80;51.90;;;;;;4766704;55;21129;-20
2021/07/05 01:44:40;;;;;;;6.50;5.90;;;28.80;52.00;;;;;;4780306;55;21857;-21
2021/07/05 01:49:44;;;;;;;6.50;5.90;;;28.80;51.90;;;;;;4782225;55;21053;-20
2021/07/05 01:54:45;;;;;;;6.40;5.80;;;28.90;52.20;;;;;;4744748;55;21583;-17
2021/07/05 01:59:46;;;;;;;6.07;5.50;;;28.80;52.10;;;;;;4761297;55;21061;-17
2021/07/05 02:04:47;;;;;;;6.22;5.68;;;28.80;51.90;;;;;;4750137;55;21086;-22
2021/07/05 02:09:49;;;;;;;6.40;5.82;;;28.80;52.00;;;;;;4744163;55;21516;-13
2021/07/05 02:14:49;;;;;;;5.55;5.05;;;28.80;52.00;;;;;;4738021;59;21014;-22
2021/07/05 02:19:50;;;;;;;6.32;5.72;;;28.80;52.00;;;;;;4766515;55;21022;-21
2021/07/05 02:24:51;;;;;;;5.68;5.07;;;28.80;52.10;;;;;;4744672;55;21025;-18
2021/07/05 02:29:52;;;;;;;5.97;5.47;;;28.80;52.10;;;;;;4744284;55;21018;-19
2021/07/05 02:34:53;;;;;;;6.15;5.55;;;28.80;52.00;;;;;;4741988;55;21055;-22
2021/07/05 02:39:53;;;;;;;5.95;5.45;;;28.80;52.00;;;;;;4778547;55;21053;-20
2021/07/05 02:44:54;;;;;;;5.95;5.45;;;28.80;52.10;;;;;;4763468;55;21991;-22
2021/07/05 02:49:55;;;;;;;5.75;5.25;;;28.80;52.10;;;;;;4752123;55;21595;-20
2021/07/05 02:54:56;;;;;;;5.62;5.12;;;28.80;52.10;;;;;;4738045;59;21161;-22
2021/07/05 03:00:06;;;;;;;5.57;5.10;;;28.80;52.20;;;;;;4766131;55;21018;-22
2021/07/05 03:05:09;;;;;;;5.97;5.47;;;28.80;52.10;;;;;;4741461;55;21077;-20
2021/07/05 03:10:13;;;;;;;5.60;5.10;;;28.80;52.10;;;;;;4764625;55;21073;-18
2021/07/05 03:15:15;;;;;;;5.55;5.03;;;28.80;52.00;;;;;;4738342;59;20982;-18
2021/07/05 03:20:19;;;;;;;5.55;5.05;;;28.80;52.20;;;;;;4758334;55;21105;-20
2021/07/05 03:25:22;;;;;;;5.70;5.20;;;28.80;52.10;;;;;;4739369;59;21009;-18
2021/07/05 03:30:25;;;;;;;5.62;5.12;;;28.80;52.20;;;;;;4803386;55;21002;-21
2021/07/05 03:35:26;;;;;;;5.60;5.10;;;28.80;52.10;;;;;;4790230;55;21093;-20
2021/07/05 03:40:31;;;;;;;5.25;4.70;;;28.80;52.10;;;;;;4802739;55;21025;-22
2021/07/05 03:45:35;;;;;;;4.97;4.50;;;28.80;52.20;;;;;;4740293;55;21030;-23
2021/07/05 03:50:39;;;;;;;5.40;4.90;;;28.80;52.10;;;;;;4801870;55;21053;-15
2021/07/05 03:55:40;;;;;;;5.05;4.65;;;28.80;52.20;;;;;;4737839;59;21027;-18
2021/07/05 04:00:41;;;;;;;5.32;4.82;;;28.80;52.20;;;;;;4775939;55;21030;-20
2021/07/05 04:05:42;;;;;;;5.57;4.87;;;28.80;52.20;;;;;;4755215;55;21045;-18
2021/07/05 04:10:43;;;;;;;5.53;5.03;;;28.80;52.20;;;;;;4756171;55;20990;-15
2021/07/05 04:15:44;;;;;;;5.22;4.82;;;28.80;52.20;;;;;;4760699;55;21017;-21
2021/07/05 04:20:47;;;;;;;5.35;4.82;;;28.80;52.20;;;;;;4780804;55;21018;-20
2021/07/05 04:25:47;;;;;;;4.75;4.35;;;28.70;52.10;;;;;;4738209;59;21925;-19
2021/07/05 04:30:51;;;;;;;5.28;4.87;;;28.70;52.00;;;;;;4738658;55;21050;-18
2021/07/05 04:35:52;;;;;;;4.97;4.57;;;28.80;52.10;;;;;;4800199;55;21069;-18
2021/07/05 04:40:53;;;;;;;4.78;4.37;;;28.80;52.10;;;;;;4776560;55;20986;-18
2021/07/05 04:45:55;;;;;;;5.05;4.55;;;28.70;52.00;;;;;;4744746;55;21013;-18
2021/07/05 04:50:56;;;;;;;5.20;4.70;;;28.80;52.20;;;;;;4751444;55;21468;-19
2021/07/05 04:55:59;;;;;;;5.45;4.37;;;28.70;52.10;;;;;;4749624;55;21030;-20
2021/07/05 05:00:59;;;;;;;5.40;4.90;;;28.70;51.90;;;;;;4805938;55;20998;-18
2021/07/05 05:06:02;;;;;;;5.20;4.53;;;28.70;52.00;;;;;;4798503;55;21524;-19
2021/07/05 05:11:02;;;;;;;4.40;4.00;;;28.80;52.00;;;;;;4762119;55;21566;-20
2021/07/05 05:16:04;;;;;;;4.70;4.30;;;28.70;52.00;;;;;;4740266;55;21021;-20
2021/07/05 05:21:05;;;;;;;5.15;4.65;;;28.70;51.90;;;;;;4769690;55;21054;-16
2021/07/05 05:26:07;;;;;;;5.12;4.68;;;28.70;52.00;;;;;;4761566;55;20999;-21
2021/07/05 05:31:08;;;;;;;5.57;5.03;;;28.70;52.00;;;;;;4769167;55;21579;-20
2021/07/05 05:36:09;;;;;;;4.55;4.15;;;28.70;52.00;;;;;;4793503;55;21096;-14
2021/07/05 05:41:09;;;;;;;5.30;4.80;;;28.70;52.00;;;;;;4738358;55;21041;-20
2021/07/05 05:46:16;;;;;;;5.97;5.03;;;28.70;52.10;;;;;;4738398;59;21531;-16
2021/07/05 05:51:17;;;;;;;5.43;4.93;;;28.70;52.10;;;;;;4759905;55;21583;-20
2021/07/05 05:56:21;;;;;;;5.55;4.72;;;28.70;52.00;;;;;;4737847;56;21068;-23
2021/07/05 06:01:22;;;;;;;6.12;5.10;;;28.70;52.00;;;;;;4759267;55;21521;-13
2021/07/05 06:06:23;;;;;;;5.87;5.35;;;28.70;52.10;;;;;;4752677;55;21197;-17
2021/07/05 06:11:23;;;;;;;5.72;5.12;;;28.70;52.10;;;;;;4801124;55;21005;-18
2021/07/05 06:16:25;;;;;;;5.70;5.00;;;28.70;52.00;;;;;;4739689;55;21484;-17
2021/07/05 06:21:27;;;;;;;6.95;5.60;;;28.70;52.10;;;;;;4760521;55;21532;-17
2021/07/05 06:26:27;;;;;;;5.60;4.75;;;28.70;52.70;;;;;;4746830;55;21088;-19
2021/07/05 06:31:29;;;;;;;7.85;5.32;;;28.60;52.00;;;;;;4757429;55;21572;-19
2021/07/05 06:36:30;;;;;;;5.87;5.28;;;28.70;52.20;;;;;;4754437;55;21481;-20
2021/07/05 06:41:31;;;;;;;5.78;5.18;;;28.70;52.10;;;;;;4771092;55;21009;-15
2021/07/05 06:46:33;;;;;;;5.70;5.15;;;28.70;52.10;;;;;;4764000;55;21014;-18
2021/07/05 06:51:34;;;;;;;6.05;5.45;;;28.70;52.10;;;;;;4755235;55;21022;-23
2021/07/05 06:56:37;;;;;;;5.75;5.25;;;28.70;52.20;;;;;;4737340;59;21556;-18
2021/07/05 07:01:39;;;;;;;5.93;5.32;;;28.70;52.10;;;;;;4738908;59;22233;-20
2021/07/05 07:06:47;;;;;;;20.05;13.43;;;28.70;52.20;;;;;;4761505;55;21054;-17
2021/07/05 07:11:48;;;;;;;22.48;12.82;;;28.70;51.60;;;;;;4742392;55;21539;-20
2021/07/05 07:16:52;;;;;;;15.80;9.32;;;28.60;51.70;;;;;;4744824;55;21090;-21
2021/07/05 07:21:56;;;;;;;13.35;9.57;;;28.50;51.80;;;;;;4771494;55;21014;-18
2021/07/05 07:26:57;;;;;;;38.25;30.48;;;28.50;51.90;;;;;;4808910;55;21628;-18
2021/07/05 07:31:58;;;;;;;50.67;33.25;;;28.50;52.70;;;;;;4738488;55;21489;-17
2021/07/05 07:37:05;;;;;;;35.03;25.98;;;28.50;52.80;;;;;;4752041;55;21074;-19
2021/07/05 07:42:06;;;;;;;32.50;22.83;;;28.50;52.50;;;;;;4738258;55;21545;-20
2021/07/05 07:47:07;;;;;;;37.60;27.75;;;28.60;52.30;;;;;;4750694;55;21006;-21
2021/07/05 07:52:08;;;;;;;55.03;39.58;;;28.70;52.30;;;;;;4743356;55;21057;-18
2021/07/05 07:57:16;;;;;;;47.80;32.72;;;28.60;51.80;;;;;;4756617;55;21026;-19
2021/07/05 08:02:17;;;;;;;36.15;27.17;;;28.60;52.00;;;;;;4737556;59;21549;-22
2021/07/05 08:07:17;;;;;;;50.58;38.10;;;28.50;52.40;;;;;;4737722;55;21030;-16
2021/07/05 08:12:18;;;;;;;40.22;28.80;;;28.50;52.20;;;;;;4737991;55;21046;-18
2021/07/05 08:17:19;;;;;;;34.30;26.73;;;28.50;52.30;;;;;;4739758;55;21022;-18
2021/07/05 08:22:20;;;;;;;29.15;21.83;;;28.50;52.30;;;;;;4758528;55;21038;-18
2021/07/05 08:27:21;;;;;;;135.50;27.58;;;28.50;52.40;;;;;;4741285;55;21508;-21
2021/07/05 08:32:22;;;;;;;32.25;18.92;;;28.50;53.00;;;;;;4741432;55;21006;-20
2021/07/05 08:37:23;;;;;;;23.83;18.02;;;28.50;52.20;;;;;;4741581;55;21066;-19
2021/07/05 08:42:26;;;;;;;25.75;18.55;;;28.40;52.20;;;;;;4743222;55;21019;-18
2021/07/05 08:47:30;;;;;;;23.83;19.48;;;28.40;52.30;;;;;;4738399;55;21057;-23
2021/07/05 08:52:35;;;;;;;29.90;20.25;;;28.40;52.50;;;;;;4758186;55;21097;-18
2021/07/05 08:57:41;;;;;;;26.47;21.97;;;28.40;53.70;;;;;;4760653;55;21082;-19
2021/07/05 09:02:42;;;;;;;28.87;20.93;;;28.40;52.80;;;;;;4773854;55;21042;-19
2021/07/05 09:08:07;;;;;;;27.95;20.92;;;28.40;53.00;;;;;;4737942;55;21030;-17
2021/07/05 09:13:16;;;;;;;30.45;24.05;;;28.40;53.00;;;;;;4741658;55;21472;-20
2021/07/05 09:18:38;;;;;;;41.67;29.10;;;28.50;53.10;;;;;;4767422;55;21001;-19
2021/07/05 09:23:58;;;;;;;57.80;46.90;;;28.50;53.20;;;;;;4773520;55;21145;-18
2021/07/05 09:29:22;;;;;;;60.50;48.42;;;28.50;53.00;;;;;;4741979;55;21033;-17
2021/07/05 09:34:32;;;;;;;63.25;48.78;;;28.50;53.00;;;;;;4757016;55;21503;-23
2021/07/05 09:39:33;;;;;;;76.55;55.70;;;28.40;52.90;;;;;;4758098;55;21452;-18
2021/07/05 09:44:40;;;;;;;99.43;69.12;;;28.50;53.30;;;;;;4767552;55;21009;-18
2021/07/05 09:49:42;;;;;;;96.03;70.00;;;28.50;53.10;;;;;;4770540;55;21537;-15
2021/07/05 09:54:48;;;;;;;91.00;67.87;;;28.40;53.00;;;;;;4769687;55;21009;-18
2021/07/05 09:59:51;;;;;;;91.22;65.22;;;28.40;53.00;;;;;;4759463;55;21528;-19
2021/07/05 10:05:17;;;;;;;91.07;63.97;;;28.40;52.90;;;;;;4738623;55;21545;-20
2021/07/05 10:10:18;;;;;;;;;;;28.50;53.10;;;;;;4744849;55;21013;-19
2021/07/05 10:15:20;;;;;;;63.80;51.03;;;28.50;53.60;;;;;;4742283;55;20435;-19
2021/07/05 10:20:38;;;;;;;77.57;62.97;;;28.50;53.30;;;;;;4757733;55;21082;-21
2021/07/05 10:25:45;;;;;;;77.55;64.10;;;28.50;53.60;;;;;;4754542;55;21001;-21
2021/07/05 10:30:50;;;;;;;66.45;54.83;;;28.50;54.60;;;;;;4737162;59;21120;-20
2021/07/05 10:35:54;;;;;;;53.17;43.63;;;28.50;54.80;;;;;;4738183;59;21583;-17
2021/07/05 10:41:13;;;;;;;54.08;42.45;;;28.50;55.00;;;;;;4765918;55;21021;-20
2021/07/05 10:46:39;;;;;;;60.42;41.75;;;28.50;55.70;;;;;;4754165;55;21073;-21
2021/07/05 10:51:45;;;;;;;57.70;39.67;;;28.50;55.90;;;;;;4746573;55;20990;-18
2021/07/05 10:56:53;;;;;;;50.97;33.20;;;28.50;56.10;;;;;;4736896;59;21579;-18
2021/07/05 11:01:55;;;;;;;46.63;32.88;;;28.50;56.80;;;;;;4758186;55;21054;-19
2021/07/05 11:07:10;;;;;;;59.08;41.70;;;28.50;56.80;;;;;;4737929;59;21500;-23
2021/07/05 11:12:30;;;;;;;59.10;43.00;;;28.50;57.00;;;;;;4760113;55;21009;-17
2021/07/05 11:17:37;;;;;;;55.30;41.25;;;28.50;56.60;;;;;;4756757;55;21126;-18
2021/07/05 11:22:39;;;;;;;46.25;36.88;;;28.50;56.70;;;;;;4739046;55;21523;-18
2021/07/05 11:27:45;;;;;;;43.97;33.45;;;28.50;56.60;;;;;;4745073;55;21528;-18
2021/07/05 11:32:56;;;;;;;;;;;28.50;56.40;;;;;;4742238;55;21021;-18
2021/07/05 11:38:44;;;;;;;61.85;49.63;;;28.50;56.50;;;;;;4796989;55;20296;-27
2021/07/05 11:44:05;;;;;;;46.03;39.55;;;28.50;56.20;;;;;;4745774;55;21061;-20
2021/07/05 11:49:23;;;;;;;46.55;33.38;;;28.50;56.10;;;;;;4741880;55;21033;-20
2021/07/05 11:54:35;;;;;;;40.00;33.80;;;28.50;56.20;;;;;;4760810;55;21018;-19
2021/07/05 11:59:37;;;;;;;41.50;32.80;;;28.60;56.50;;;;;;4739138;55;20994;-19
2021/07/05 12:04:41;;;;;;;37.03;31.42;;;28.60;56.20;;;;;;4746410;55;21038;-19
2021/07/05 12:09:44;;;;;;;35.60;30.75;;;28.70;56.00;;;;;;4767413;55;21519;-21
2021/07/05 12:14:47;;;;;;;36.05;29.12;;;28.70;55.80;;;;;;4737613;59;21097;-22
2021/07/05 12:19:52;;;;;;;36.05;29.55;;;28.70;55.70;;;;;;4742399;55;21082;-17
2021/07/05 12:24:56;;;;;;;34.63;28.40;;;28.80;55.70;;;;;;4769392;55;22059;-23
2021/07/05 12:30:00;;;;;;;34.78;29.45;;;28.80;55.50;;;;;;4737619;59;20998;-21
2021/07/05 12:35:09;;;;;;;35.30;27.77;;;28.80;55.40;;;;;;4743035;55;21587;-18
2021/07/05 12:40:19;;;;;;;29.17;25.73;;;28.80;55.40;;;;;;4759202;55;21010;-20
2021/07/05 12:46:02;;;;;;;25.77;22.83;;;28.80;55.70;;;;;;4757420;55;21453;-19
2021/07/05 12:51:04;;;;;;;27.42;22.87;;;28.80;55.70;;;;;;4738111;59;21457;-16
2021/07/05 12:56:08;;;;;;;26.17;23.40;;;28.90;56.30;;;;;;4750417;55;21093;-17
2021/07/05 13:01:13;;;;;;;28.70;23.00;;;28.90;56.20;;;;;;4751063;55;21507;-20
2021/07/05 13:06:14;;;;;;;23.83;19.23;;;28.90;56.10;;;;;;4769095;55;21010;-17
2021/07/05 13:11:18;;;;;;;22.48;17.60;;;28.80;56.10;;;;;;4744183;55;21568;-15
2021/07/05 13:16:25;;;;;;;19.50;14.48;;;28.80;55.70;;;;;;4770216;55;21452;-20
2021/07/05 13:21:31;;;;;;;18.05;14.87;;;28.80;55.50;;;;;;4758392;55;21145;-19
2021/07/05 13:26:34;;;;;;;16.50;14.30;;;28.80;55.80;;;;;;4739469;55;21434;-22
2021/07/05 13:31:38;;;;;;;15.95;14.25;;;28.90;55.90;;;;;;4751022;55;21042;-19
2021/07/05 13:36:50;;;;;;;18.55;14.32;;;28.90;55.90;;;;;;4750219;55;21006;-21
2021/07/05 13:41:51;;;;;;;17.33;14.15;;;28.90;55.90;;;;;;4738093;55;21062;-20
2021/07/05 13:48:44;;;;;;;16.25;13.55;;;28.90;56.00;;;;;;4737959;59;21006;-20
2021/07/05 13:53:46;;;;;;;15.82;13.00;;;29.00;56.10;;;;;;4748510;55;20998;-20
2021/07/05 13:58:56;;;;;;;15.35;12.98;;;29.00;56.10;;;;;;4756741;55;21029;-20
2021/07/05 14:03:59;;;;;;;14.23;12.07;;;29.00;56.30;;;;;;4756650;55;21050;-16
2021/07/05 14:08:59;;;;;;;15.35;13.62;;;29.00;56.30;;;;;;4765985;55;20991;-17
2021/07/05 14:14:00;;;;;;;13.50;12.10;;;29.10;56.40;;;;;;4737869;59;21049;-21
2021/07/05 14:19:03;;;;;;;13.75;12.35;;;29.10;56.50;;;;;;4752533;55;20990;-18
2021/07/05 14:24:04;;;;;;;14.10;12.70;;;29.10;56.50;;;;;;4750104;55;21543;-19
2021/07/05 14:29:05;;;;;;;13.90;12.52;;;29.10;56.60;;;;;;4748410;55;21002;-20
2021/07/05 14:34:06;;;;;;;14.18;12.73;;;29.10;56.80;;;;;;4750684;55;21586;-22
2021/07/05 14:39:07;;;;;;;15.23;13.62;;;29.10;56.80;;;;;;4750407;55;21167;-20
2021/07/05 14:44:08;;;;;;;13.73;12.32;;;29.10;57.00;;;;;;4739099;55;21520;-17
2021/07/05 14:49:09;;;;;;;14.15;12.75;;;29.10;56.90;;;;;;4747529;55;20985;-21
2021/07/05 14:54:09;;;;;;;15.20;12.25;;;29.10;56.90;;;;;;4738090;59;21025;-18
2021/07/05 14:59:10;;;;;;;14.70;13.13;;;29.10;56.90;;;;;;4764494;55;21016;-20
2021/07/05 15:04:11;;;;;;;14.65;12.60;;;29.10;57.10;;;;;;4752188;55;21030;-21
2021/07/05 15:09:12;;;;;;;16.02;13.52;;;29.10;57.10;;;;;;4738042;59;21551;-18
2021/07/05 15:14:13;;;;;;;14.93;13.23;;;29.10;57.20;;;;;;4738069;55;21524;-20
2021/07/05 15:19:15;;;;;;;14.70;13.18;;;29.10;57.20;;;;;;4754505;55;21018;-19
2021/07/05 15:24:19;;;;;;;14.80;13.13;;;29.00;57.20;;;;;;4748867;55;21532;-21
2021/07/05 15:29:20;;;;;;;16.23;13.98;;;29.00;57.20;;;;;;4737343;59;21070;-22
2021/07/05 15:34:20;;;;;;;15.10;13.70;;;29.00;57.20;;;;;;4752510;55;21046;-21
2021/07/05 15:39:22;;;;;;;14.50;13.00;;;29.00;57.20;;;;;;4744103;55;21563;-18
2021/07/05 15:44:24;;;;;;;16.95;13.82;;;29.00;57.80;;;;;;4748471;55;21473;-19
2021/07/05 15:49:25;;;;;;;14.40;13.00;;;28.90;57.00;;;;;;4776515;55;21054;-17
2021/07/05 15:54:26;;;;;;;14.45;12.95;;;28.90;57.00;;;;;;4758975;55;21066;-18
2021/07/05 15:59:27;;;;;;;14.07;12.63;;;28.90;57.00;;;;;;4749055;55;21089;-16
2021/07/05 16:04:28;;;;;;;13.95;12.57;;;28.90;57.00;;;;;;4738186;59;21082;-20
2021/07/05 16:09:29;;;;;;;16.62;13.88;;;28.90;56.90;;;;;;4747316;55;21050;-19
2021/07/05 16:14:30;;;;;;;14.90;13.38;;;28.90;56.90;;;;;;4782069;55;21038;-19
2021/07/05 16:19:31;;;;;;;14.85;13.00;;;28.90;56.90;;;;;;4739298;59;21480;-22
2021/07/05 16:24:32;;;;;;;13.80;12.40;;;28.90;56.90;;;;;;4766723;55;21030;-20
2021/07/05 16:29:33;;;;;;;14.75;13.23;;;28.90;56.80;;;;;;4737990;59;21018;-20
2021/07/05 16:34:34;;;;;;;13.52;12.23;;;28.90;56.80;;;;;;4745388;55;21497;-19
2021/07/05 16:39:34;;;;;;;14.32;12.93;;;28.90;57.30;;;;;;4749371;55;21062;-19
2021/07/05 16:44:38;;;;;;;14.25;12.85;;;28.90;56.70;;;;;;4738204;55;21002;-20
2021/07/05 16:49:40;;;;;;;14.38;12.52;;;28.80;56.60;;;;;;4738623;59;21580;-24
2021/07/05 16:54:42;;;;;;;14.60;13.20;;;28.80;56.60;;;;;;4762691;55;21090;-20
2021/07/05 16:59:50;;;;;;;14.82;13.32;;;28.80;56.50;;;;;;4742629;55;21058;-21
2021/07/05 17:04:52;;;;;;;13.65;12.35;;;28.80;56.50;;;;;;4782858;55;21026;-21
2021/07/05 17:09:53;;;;;;;13.30;12.00;;;28.80;56.50;;;;;;4774751;55;21002;-17
2021/07/05 17:14:54;;;;;;;13.13;11.93;;;28.80;56.50;;;;;;4756117;55;21505;-21
2021/07/05 17:19:54;;;;;;;13.30;12.05;;;28.80;56.40;;;;;;4767671;55;21476;-22
2021/07/05 17:24:55;;;;;;;13.57;12.27;;;28.80;56.40;;;;;;4750437;55;21033;-20
2021/07/05 17:29:56;;;;;;;13.60;12.32;;;28.80;56.80;;;;;;4754648;55;21053;-19
2021/07/05 17:34:57;;;;;;;13.27;12.07;;;28.80;56.40;;;;;;4742234;55;21006;-15
2021/07/05 17:39:57;;;;;;;13.23;11.95;;;28.80;56.30;;;;;;4738358;59;21022;-20
2021/07/05 17:44:58;;;;;;;12.57;11.38;;;28.80;56.40;;;;;;4738048;55;21069;-19
2021/07/05 17:50:01;;;;;;;13.10;11.77;;;28.80;56.30;;;;;;4739029;59;21022;-18
2021/07/05 17:55:03;;;;;;;12.77;11.57;;;28.80;56.30;;;;;;4783814;55;21050;-19
2021/07/05 18:00:10;;;;;;;13.85;12.45;;;28.80;56.30;;;;;;4757069;55;21069;-20
2021/07/05 18:05:12;;;;;;;13.30;12.00;;;28.80;56.30;;;;;;4770254;55;21042;-20
2021/07/05 18:10:22;;;;;;;13.35;12.15;;;28.80;56.30;;;;;;4739480;55;21813;-25
2021/07/05 18:15:25;;;;;;;13.55;12.20;;;28.80;56.20;;;;;;4739869;55;21061;-20
2021/07/05 18:20:27;;;;;;;13.40;12.10;;;28.80;56.80;;;;;;4738631;59;21071;-20
2021/07/05 18:25:28;;;;;;;13.18;11.93;;;28.80;56.20;;;;;;4752349;55;21515;-19
2021/07/05 18:30:29;;;;;;;13.40;12.10;;;28.80;56.20;;;;;;4739273;55;20994;-21
2021/07/05 18:35:31;;;;;;;12.98;11.77;;;28.80;56.20;;;;;;4751190;55;21047;-21
2021/07/05 18:40:31;;;;;;;13.90;12.50;;;28.80;56.20;;;;;;4742543;55;21097;-17
2021/07/05 18:45:34;;;;;;;14.13;12.82;;;28.80;56.20;;;;;;4753364;55;21457;-21
2021/07/05 18:50:35;;;;;;;12.75;11.55;;;28.80;56.20;;;;;;4750381;55;21489;-22
2021/07/05 18:55:36;;;;;;;13.70;12.32;;;28.80;56.20;;;;;;4749184;55;21057;-21
2021/07/05 19:00:37;;;;;;;13.20;11.90;;;28.70;56.10;;;;;;4742562;55;20994;-21
2021/07/05 19:05:38;;;;;;;13.30;12.00;;;28.80;56.20;;;;;;4750220;55;21030;-23
2021/07/05 19:10:39;;;;;;;13.65;12.35;;;28.70;56.10;;;;;;4750262;55;21476;-18
2021/07/05 19:15:39;;;;;;;14.00;12.60;;;28.80;56.30;;;;;;4761308;55;21010;-23
2021/07/05 19:20:40;;;;;;;13.48;12.27;;;28.80;56.20;;;;;;4738152;59;20994;-21
2021/07/05 19:25:41;;;;;;;14.32;12.50;;;28.70;56.10;;;;;;4753024;55;20990;-19
2021/07/05 19:30:42;;;;;;;13.80;12.43;;;28.70;56.10;;;;;;4753014;55;21006;-21
2021/07/05 19:35:43;;;;;;;13.50;12.27;;;28.70;56.20;;;;;;4742821;55;21038;-21
2021/07/05 19:40:44;;;;;;;13.98;12.68;;;28.70;56.10;;;;;;4743726;55;21025;-20
2021/07/05 19:45:45;;;;;;;13.75;12.45;;;28.70;56.10;;;;;;4761247;55;21077;-20
2021/07/05 19:50:47;;;;;;;13.95;12.65;;;28.70;56.10;;;;;;4752725;55;21034;-20
2021/07/05 19:55:48;;;;;;;13.90;12.50;;;28.70;56.20;;;;;;4745589;55;21493;-17
2021/07/05 20:00:48;;;;;;;13.75;12.45;;;28.70;56.10;;;;;;4739330;55;21021;-21
2021/07/05 20:05:49;;;;;;;13.73;12.52;;;28.70;56.20;;;;;;4760644;55;21652;-20
2021/07/05 20:10:51;;;;;;;14.15;12.85;;;28.70;56.20;;;;;;4776020;55;21041;-18
2021/07/05 20:15:52;;;;;;;14.60;13.20;;;28.70;56.20;;;;;;4738429;59;21037;-23
2021/07/05 20:20:53;;;;;;;13.62;12.27;;;28.70;56.20;;;;;;4776486;55;21018;-21
2021/07/05 20:25:54;;;;;;;13.82;12.43;;;28.70;56.20;;;;;;4754820;55;21035;-19
2021/07/05 20:30:55;;;;;;;15.70;13.35;;;28.70;56.20;;;;;;4804323;55;21026;-21
2021/07/05 20:35:57;;;;;;;13.95;12.55;;;28.80;56.30;;;;;;4779035;55;21145;-19
2021/07/05 20:40:58;;;;;;;14.15;12.85;;;28.70;56.20;;;;;;4742598;55;21487;-19
2021/07/05 20:46:00;;;;;;;14.00;12.70;;;28.70;56.20;;;;;;4738906;59;21045;-21
2021/07/05 20:51:01;;;;;;;13.55;12.25;;;28.70;56.20;;;;;;4738138;59;21480;-18
2021/07/05 20:56:02;;;;;;;13.68;12.35;;;28.70;56.50;;;;;;4740569;55;21014;-19
2021/07/05 21:01:03;;;;;;;13.57;12.35;;;28.70;56.40;;;;;;4751909;55;21054;-18
2021/07/05 21:06:04;;;;;;;13.35;12.15;;;28.70;56.40;;;;;;4777684;55;20982;-20
2021/07/05 21:11:05;;;;;;;13.38;12.07;;;28.70;56.20;;;;;;4765588;55;21006;-20
2021/07/05 21:16:06;;;;;;;13.27;12.07;;;28.70;56.30;;;;;;4739299;55;21057;-19
2021/07/05 21:21:07;;;;;;;13.57;12.30;;;28.70;56.30;;;;;;4805464;55;21007;-18
2021/07/05 21:26:07;;;;;;;13.62;12.23;;;28.70;56.30;;;;;;4746255;55;21010;-20
2021/07/05 21:31:08;;;;;;;14.23;12.82;;;28.70;56.30;;;;;;4748995;55;21507;-20
2021/07/05 21:36:11;;;;;;;12.73;11.60;;;28.70;56.40;;;;;;4818715;55;21066;-20
2021/07/05 21:41:15;;;;;;;14.00;12.52;;;28.70;56.40;;;;;;4738114;59;21574;-21
2021/07/05 21:46:16;;;;;;;13.02;11.73;;;28.70;56.40;;;;;;4738276;59;21053;-20
2021/07/05 21:51:20;;;;;;;14.13;12.73;;;28.70;56.40;;;;;;4742582;55;21129;-21
2021/07/05 21:56:20;;;;;;;13.43;12.13;;;28.70;56.40;;;;;;4761147;55;21044;-18
2021/07/05 22:01:21;;;;;;;12.30;11.20;;;28.70;56.40;;;;;;4738048;59;21075;-21
2021/07/05 22:06:22;;;;;;;13.70;12.40;;;28.70;56.30;;;;;;4771911;55;21001;-18
2021/07/05 22:11:23;;;;;;;13.55;12.25;;;28.70;56.40;;;;;;4737932;59;21033;-20
2021/07/05 22:16:24;;;;;;;12.80;11.65;;;28.70;56.00;;;;;;4749242;55;21053;-20
2021/07/05 22:21:25;;;;;;;13.18;11.88;;;28.70;56.40;;;;;;4751755;55;21065;-24
2021/07/05 22:26:27;;;;;;;13.27;11.98;;;28.70;56.40;;;;;;4740983;55;21001;-22
2021/07/05 22:31:29;;;;;;;13.32;11.93;;;28.70;56.40;;;;;;4738541;55;21081;-18
2021/07/05 22:36:31;;;;;;;13.62;12.43;;;28.70;56.50;;;;;;4762200;55;21006;-19
2021/07/05 22:41:32;;;;;;;12.68;11.48;;;28.70;56.40;;;;;;4771382;55;21017;-20
2021/07/05 22:46:33;;;;;;;12.68;11.55;;;28.70;56.40;;;;;;4774941;55;21010;-18
2021/07/05 22:51:34;;;;;;;12.98;11.73;;;28.70;56.50;;;;;;4844167;55;21025;-17
2021/07/05 22:56:36;;;;;;;13.35;11.98;;;28.70;56.40;;;;;;4833840;55;21571;-18
2021/07/05 23:01:37;;;;;;;13.60;12.30;;;28.70;56.40;;;;;;4768178;55;21045;-17
2021/07/05 23:06:38;;;;;;;12.60;11.40;;;28.70;56.50;;;;;;4757322;55;20990;-17
2021/07/05 23:11:39;;;;;;;12.95;11.75;;;28.70;56.50;;;;;;4762083;55;21010;-16
2021/07/05 23:16:40;;;;;;;12.60;11.50;;;28.70;56.50;;;;;;4759682;55;21022;-22
2021/07/05 23:21:40;;;;;;;12.40;11.30;;;28.70;56.50;;;;;;4807801;55;21038;-19
2021/07/05 23:26:41;;;;;;;11.80;10.70;;;28.70;56.50;;;;;;4784415;55;20998;-20
2021/07/05 23:31:42;;;;;;;12.20;11.10;;;28.70;56.50;;;;;;4754199;55;21054;-21
2021/07/05 23:36:46;;;;;;;12.73;11.52;;;28.70;56.50;;;;;;4743151;55;21533;-18
2021/07/05 23:41:47;;;;;;;12.32;11.23;;;28.70;56.50;;;;;;4759886;55;21081;-22
2021/07/05 23:46:48;;;;;;;12.68;11.57;;;28.70;56.50;;;;;;4738411;59;21855;-18
2021/07/05 23:51:48;;;;;;;12.85;11.65;;;28.70;56.50;;;;;;4754954;55;21050;-18
2021/07/05 23:56:49;;;;;;;12.45;11.35;;;28.70;56.60;;;;;;4760785;55;21006;-18
